createdAt,value
2019-04-16T00:01:18.319Z,51.88
2019-04-16T00:04:03.121Z,51.80
2019-04-16T00:06:37.100Z,51.08
2019-04-16T00:09:23.268Z,59.20
2019-04-16T00:11:57.421Z,64.17
2019-04-16T00:14:25.597Z,57.13
2019-04-16T00:16:51.948Z,60.23
2019-04-16T00:19:18.533Z,62.50
2019-04-16T00:22:01.792Z,58.28
2019-04-16T00:24:29.963Z,60.88
2019-04-16T00:26:59.287Z,57.45
2019-04-16T00:29:24.454Z,59.50
2019-04-16T00:31:52.625Z,51.73
2019-04-16T00:34:19.001Z,43.23
2019-04-16T00:36:48.424Z,50.35
2019-04-16T00:39:13.368Z,52.57
2019-04-16T00:41:39.639Z,56.18
2019-04-16T00:44:06.031Z,52.75
2019-04-16T00:46:32.287Z,54.53
2019-04-16T00:48:58.645Z,45.50
2019-04-16T00:51:25.056Z,52.58
2019-04-16T00:53:51.311Z,56.70
2019-04-16T00:56:17.571Z,49.50
2019-04-16T00:58:43.942Z,46.28
2019-04-16T01:01:10.288Z,45.12
2019-04-16T01:03:36.548Z,46.58
2019-04-16T01:06:06.795Z,54.20
2019-04-16T01:08:30.921Z,44.50
2019-04-16T01:10:57.206Z,55.50
2019-04-16T01:13:24.468Z,59.88
2019-04-16T01:15:51.470Z,49.03
2019-04-16T01:18:17.727Z,58.63
2019-04-16T01:20:44.408Z,49.80
2019-04-16T01:23:10.815Z,49.23
2019-04-16T01:25:37.078Z,50.03
2019-04-16T01:28:05.272Z,50.17
2019-04-16T01:30:36.590Z,53.00
2019-04-16T01:33:05.292Z,55.10
2019-04-16T01:35:33.459Z,51.55
2019-04-16T01:38:16.709Z,47.85
2019-04-16T01:40:49.790Z,52.93
2019-04-16T01:43:13.053Z,54.83
2019-04-16T01:45:39.439Z,53.95
2019-04-16T01:48:08.033Z,55.50
2019-04-16T01:50:33.748Z,54.47
2019-04-16T01:53:00.095Z,60.70
2019-04-16T01:55:26.772Z,63.13
2019-04-16T01:57:53.091Z,62.50
2019-04-16T02:00:19.372Z,67.30
2019-04-16T02:02:46.286Z,66.33
2019-04-16T02:05:13.301Z,76.20
2019-04-16T02:07:39.605Z,77.62
2019-04-16T02:10:07.254Z,70.62
2019-04-16T02:12:33.934Z,66.83
2019-04-16T02:15:00.477Z,80.30
2019-04-16T02:17:27.731Z,68.00
2019-04-16T02:19:54.091Z,69.37
2019-04-16T02:22:20.369Z,73.80
2019-04-16T02:24:47.866Z,76.00
2019-04-16T02:27:15.013Z,75.13
2019-04-16T02:29:41.269Z,65.25
2019-04-16T02:32:07.564Z,67.30
2019-04-16T02:34:33.834Z,58.87
2019-04-16T02:37:02.244Z,74.82
2019-04-16T02:39:47.278Z,72.75
2019-04-16T02:41:58.114Z,84.50
2019-04-16T02:44:24.445Z,70.97
2019-04-16T02:46:50.661Z,70.45
2019-04-16T02:49:23.180Z,77.30
2019-04-16T02:51:49.786Z,69.33
2019-04-16T02:54:17.931Z,80.53
2019-04-16T02:57:04.586Z,84.65
2019-04-16T02:59:47.412Z,91.15
2019-04-16T03:02:14.890Z,89.42
2019-04-16T03:04:43.399Z,102.07
2019-04-16T03:07:09.620Z,95.03
2019-04-16T03:09:39.733Z,90.77
2019-04-16T03:12:04.003Z,106.37
2019-04-16T03:14:30.813Z,105.60
2019-04-16T03:16:59.049Z,98.92
2019-04-16T03:19:29.936Z,92.33
2019-04-16T03:21:59.164Z,105.50
2019-04-16T03:24:24.292Z,105.27
2019-04-16T03:26:51.256Z,102.47
2019-04-16T03:29:17.542Z,80.75
2019-04-16T03:31:43.841Z,93.82
2019-04-16T03:34:10.094Z,90.90
2019-04-16T03:36:36.397Z,87.45
2019-04-16T03:39:04.544Z,76.95
2019-04-16T03:41:30.813Z,90.83
2019-04-16T03:43:57.072Z,95.12
2019-04-16T03:46:23.373Z,94.17
2019-04-16T03:48:52.493Z,93.45
2019-04-16T03:51:17.700Z,85.70
2019-04-16T03:53:46.562Z,85.10
2019-04-16T03:56:12.065Z,76.47
2019-04-16T03:58:39.298Z,88.75
2019-04-16T04:01:05.766Z,92.10
2019-04-16T04:03:32.064Z,89.40
2019-04-16T04:05:58.341Z,92.70
2019-04-16T04:08:25.218Z,94.52
2019-04-16T04:10:51.823Z,89.90
2019-04-16T04:13:18.901Z,92.90
2019-04-16T04:15:45.486Z,109.27
2019-04-16T04:18:12.880Z,96.40
2019-04-16T04:20:39.401Z,102.45
2019-04-16T04:23:05.693Z,84.15
2019-04-16T04:25:36.021Z,95.17
2019-04-16T04:28:00.079Z,102.95
2019-04-16T04:30:28.708Z,89.60
2019-04-16T04:32:54.464Z,99.67
2019-04-16T04:35:22.188Z,96.40
2019-04-16T04:37:48.680Z,82.47
2019-04-16T04:40:16.120Z,78.60
2019-04-16T04:42:42.958Z,79.07
2019-04-16T04:45:10.165Z,85.30
2019-04-16T04:47:36.851Z,83.58
2019-04-16T04:50:04.435Z,90.45
2019-04-16T04:52:30.721Z,89.47
2019-04-16T04:54:56.986Z,95.17
2019-04-16T04:57:23.258Z,80.10
2019-04-16T04:59:49.560Z,83.82
2019-04-16T05:02:15.945Z,86.10
2019-04-16T05:04:44.231Z,87.72
2019-04-16T05:07:12.423Z,92.27
2019-04-16T05:09:38.686Z,87.20
2019-04-16T05:12:07.834Z,100.42
2019-04-16T05:14:33.059Z,86.37
2019-04-16T05:16:59.317Z,80.07
2019-04-16T05:19:25.588Z,77.27
2019-04-16T05:21:51.903Z,84.42
2019-04-16T05:24:18.284Z,80.05
2019-04-16T05:26:44.666Z,78.75
2019-04-16T05:29:30.862Z,76.15
2019-04-16T05:31:57.573Z,82.12
2019-04-16T05:34:24.561Z,81.80
2019-04-16T05:36:50.858Z,78.15
2019-04-16T05:39:17.236Z,78.25
2019-04-16T05:41:43.554Z,77.05
2019-04-16T05:44:09.816Z,77.65
2019-04-16T05:46:38.413Z,75.75
2019-04-16T05:49:04.240Z,79.12
2019-04-16T05:51:31.434Z,81.00
2019-04-16T05:54:03.002Z,85.12
2019-04-16T05:56:34.498Z,77.87
2019-04-16T05:59:02.576Z,84.52
2019-04-16T06:01:30.790Z,89.97
2019-04-16T06:03:57.067Z,87.92
2019-04-16T06:06:23.369Z,83.07
2019-04-16T06:08:49.676Z,79.12
2019-04-16T06:11:27.481Z,86.22
2019-04-16T06:13:58.263Z,81.73
2019-04-16T06:16:41.489Z,84.20
2019-04-16T06:19:11.458Z,78.40
2019-04-16T06:21:56.746Z,92.20
2019-04-16T06:24:40.056Z,76.40
2019-04-16T06:27:16.293Z,74.47
2019-04-16T06:29:57.575Z,79.42
2019-04-16T06:32:44.744Z,77.47
2019-04-16T06:35:42.543Z,62.85
2019-04-16T06:38:08.913Z,71.15
2019-04-16T06:40:53.752Z,73.47
2019-04-16T06:43:30.771Z,64.00
2019-04-16T06:45:59.060Z,81.97
2019-04-16T06:48:33.473Z,67.92
2019-04-16T06:51:18.412Z,71.55
2019-04-16T06:54:03.111Z,77.65
2019-04-16T06:56:41.071Z,85.05
2019-04-16T06:59:17.263Z,69.50
2019-04-16T07:02:00.422Z,69.35
2019-04-16T07:04:40.891Z,68.92
2019-04-16T07:07:39.875Z,70.05
2019-04-16T07:12:38.151Z,54.18
2019-04-16T07:15:04.151Z,59.80
2019-04-16T07:17:33.656Z,54.98
2019-04-16T07:19:58.476Z,59.50
2019-04-16T07:22:24.985Z,58.52
2019-04-16T07:24:54.826Z,75.03
2019-04-16T07:27:21.454Z,59.08
2019-04-16T07:29:55.779Z,61.20
2019-04-16T07:32:39.225Z,52.13
2019-04-16T07:35:27.185Z,65.03
2019-04-16T07:37:55.717Z,56.05
2019-04-16T07:40:32.878Z,59.50
2019-04-16T07:43:04.258Z,55.63
2019-04-16T07:45:35.411Z,52.40
2019-04-16T07:48:06.996Z,55.40
2019-04-16T07:50:53.042Z,53.73
2019-04-16T07:53:36.248Z,51.98
2019-04-16T07:56:16.269Z,51.95
2019-04-16T07:58:42.579Z,51.02
2019-04-16T08:01:12.201Z,59.80
2019-04-16T08:03:37.162Z,56.90
2019-04-16T08:06:03.518Z,48.13
2019-04-16T08:08:30.043Z,43.73
2019-04-16T08:10:56.311Z,51.75
2019-04-16T08:13:23.093Z,45.98
2019-04-16T08:15:49.379Z,42.78
2019-04-16T08:18:15.674Z,44.95
2019-04-16T08:20:42.163Z,47.98
2019-04-16T08:23:26.923Z,44.13
2019-04-16T08:26:02.655Z,49.33
2019-04-16T08:28:21.583Z,49.60
2019-04-16T08:30:48.082Z,46.15
2019-04-16T08:33:15.117Z,47.48
2019-04-16T08:35:42.260Z,56.77
2019-04-16T08:38:08.567Z,48.00
2019-04-16T08:40:34.919Z,57.30
2019-04-16T08:43:01.161Z,107.32
2019-04-16T08:45:27.633Z,47.83
2019-04-16T08:47:54.018Z,54.63
2019-04-16T08:50:20.285Z,50.43
2019-04-16T08:52:46.772Z,54.30
2019-04-16T08:55:13.086Z,91.50
2019-04-16T08:57:39.367Z,150.35
2019-04-16T09:00:07.039Z,188.68
2019-04-16T09:02:33.357Z,131.22
2019-04-16T09:04:59.622Z,56.60
2019-04-16T09:07:38.323Z,50.00
2019-04-16T09:10:16.337Z,49.80
2019-04-16T09:12:33.844Z,46.92
2019-04-16T09:15:00.210Z,54.88
2019-04-16T09:17:28.362Z,57.88
2019-04-16T09:20:06.435Z,51.05
2019-04-16T09:22:32.893Z,53.05
2019-04-16T09:25:19.223Z,51.50
2019-04-16T09:27:47.402Z,46.33
2019-04-16T09:30:18.354Z,39.55
2019-04-16T09:32:46.562Z,52.80
2019-04-16T09:35:19.734Z,50.75
2019-04-16T09:38:00.075Z,84.07
2019-04-16T09:40:44.700Z,45.10
2019-04-16T09:43:18.794Z,50.43
2019-04-16T09:45:45.258Z,50.17
2019-04-16T09:48:11.523Z,46.65
2019-04-16T09:50:42.951Z,53.10
2019-04-16T09:53:06.032Z,46.10
2019-04-16T09:55:32.285Z,48.40
2019-04-16T09:58:00.628Z,45.38
2019-04-16T10:00:30.566Z,58.20
2019-04-16T10:02:58.739Z,50.25
2019-04-16T10:05:26.568Z,41.30
2019-04-16T10:07:53.582Z,46.02
2019-04-16T10:10:19.897Z,43.13
2019-04-16T10:12:46.307Z,48.92
2019-04-16T10:15:14.380Z,50.48
2019-04-16T10:17:40.830Z,45.90
2019-04-16T10:20:07.157Z,47.30
2019-04-16T10:22:33.437Z,48.00
2019-04-16T10:25:07.342Z,44.75
2019-04-16T10:27:35.561Z,47.88
2019-04-16T10:30:02.020Z,45.85
2019-04-16T10:32:29.019Z,44.08
2019-04-16T10:34:55.314Z,48.48
2019-04-16T10:37:21.604Z,43.35
2019-04-16T10:39:49.789Z,47.15
2019-04-16T10:42:33.029Z,43.38
2019-04-16T10:45:06.910Z,47.40
2019-04-16T10:47:47.250Z,42.50
2019-04-16T10:50:31.901Z,47.08
2019-04-16T10:53:02.999Z,38.45
2019-04-16T10:55:46.628Z,39.40
2019-04-16T10:58:14.920Z,38.80
2019-04-16T11:00:45.810Z,51.20
2019-04-16T11:03:14.017Z,94.67
2019-04-16T11:05:42.271Z,44.05
2019-04-16T11:08:09.505Z,46.68
2019-04-16T11:10:35.817Z,39.63
2019-04-16T11:13:04.041Z,45.45
2019-04-16T11:15:30.490Z,63.68
2019-04-16T11:17:56.811Z,33.10
2019-04-16T11:20:23.186Z,32.28
2019-04-16T11:22:49.490Z,37.05
2019-04-16T11:25:15.996Z,35.90
2019-04-16T11:27:42.276Z,32.10
2019-04-16T11:30:10.441Z,37.05
2019-04-16T11:32:39.337Z,29.42
2019-04-16T11:35:04.968Z,29.48
2019-04-16T11:37:35.992Z,31.85
2019-04-16T11:39:59.529Z,33.45
2019-04-16T11:42:25.986Z,38.90
2019-04-16T11:44:52.497Z,34.10
2019-04-16T11:47:19.006Z,37.00
2019-04-16T11:49:45.509Z,36.73
2019-04-16T11:52:11.856Z,39.40
2019-04-16T11:54:38.197Z,35.83
2019-04-16T11:57:04.514Z,30.55
2019-04-16T11:59:30.786Z,31.33
2019-04-16T12:02:16.533Z,28.65
2019-04-16T12:04:58.786Z,30.25
2019-04-16T12:07:29.500Z,34.92
2019-04-16T12:10:13.028Z,37.10
2019-04-16T12:12:44.051Z,40.40
2019-04-16T12:15:18.334Z,34.88
2019-04-16T12:17:56.323Z,32.20
2019-04-16T12:20:41.307Z,28.92
2019-04-16T12:23:21.334Z,38.73
2019-04-16T12:26:08.865Z,35.03
2019-04-16T12:28:52.876Z,34.53
2019-04-16T12:31:21.184Z,28.70
2019-04-16T12:33:55.541Z,39.53
2019-04-16T12:36:26.816Z,31.27
2019-04-16T12:38:58.044Z,25.62
2019-04-16T12:41:26.240Z,30.15
2019-04-16T12:43:54.515Z,36.15
2019-04-16T12:46:22.757Z,34.25
2019-04-16T12:48:53.856Z,41.85
2019-04-16T12:51:24.800Z,43.38
2019-04-16T12:54:11.243Z,34.05
2019-04-16T12:56:45.735Z,34.20
2019-04-16T12:59:16.638Z,45.50
2019-04-16T13:01:47.654Z,41.65
2019-04-16T13:04:15.842Z,37.63
2019-04-16T13:06:49.986Z,33.63
2019-04-16T13:09:27.361Z,33.90
2019-04-16T13:12:09.410Z,26.95
2019-04-16T13:15:00.618Z,34.98
2019-04-16T13:17:22.372Z,29.95
2019-04-16T13:19:50.538Z,28.65
2019-04-16T13:22:18.718Z,34.55
2019-04-16T13:24:46.985Z,39.27
2019-04-16T13:27:17.852Z,27.22
2019-04-16T13:29:44.248Z,73.65
2019-04-16T13:32:10.581Z,33.67
2019-04-16T13:34:36.958Z,29.00
2019-04-16T13:37:03.541Z,45.25
2019-04-16T13:39:40.929Z,55.78
2019-04-16T13:42:07.171Z,34.20
2019-04-16T13:44:37.733Z,27.15
2019-04-16T13:47:04.681Z,34.50
2019-04-16T13:49:32.842Z,31.87
2019-04-16T13:51:59.251Z,32.78
2019-04-16T13:54:44.278Z,28.52
2019-04-16T13:57:15.214Z,35.80
2019-04-16T14:00:02.946Z,31.20
2019-04-16T14:02:28.770Z,30.43
2019-04-16T14:04:55.142Z,25.02
2019-04-16T14:07:25.198Z,29.18
2019-04-16T14:09:49.679Z,22.98
2019-04-16T14:12:16.064Z,29.02
2019-04-16T14:14:42.362Z,30.85
2019-04-16T14:17:10.903Z,29.48
2019-04-16T14:19:38.693Z,31.07
2019-04-16T14:22:05.473Z,24.00
2019-04-16T14:24:31.813Z,24.63
2019-04-16T14:26:58.588Z,24.52
2019-04-16T14:29:25.344Z,30.40
2019-04-16T14:31:51.797Z,27.98
2019-04-16T14:34:23.132Z,29.07
2019-04-16T14:36:49.566Z,29.72
2019-04-16T14:39:17.759Z,27.15
2019-04-16T14:41:48.681Z,27.42
2019-04-16T14:46:41.334Z,29.63
2019-04-16T14:49:07.705Z,30.62
2019-04-16T14:51:34.026Z,34.20
2019-04-16T14:54:08.053Z,24.75
2019-04-16T14:56:36.362Z,28.70
2019-04-16T14:59:30.266Z,31.60
2019-04-16T15:01:51.746Z,29.82
2019-04-16T15:04:19.947Z,28.62
2019-04-16T15:06:57.094Z,23.77
2019-04-16T15:09:31.184Z,32.42
2019-04-16T15:12:11.445Z,32.35
2019-04-16T15:14:56.469Z,34.55
2019-04-16T15:17:30.680Z,34.15
2019-04-16T15:20:15.412Z,32.85
2019-04-16T15:23:00.265Z,31.10
2019-04-16T15:25:28.489Z,31.95
2019-04-16T15:27:56.681Z,33.70
2019-04-16T15:30:40.117Z,32.63
2019-04-16T15:33:20.279Z,31.65
2019-04-16T15:35:48.522Z,30.05
2019-04-16T15:38:19.762Z,25.72
2019-04-16T15:40:50.674Z,27.52
2019-04-16T15:43:34.312Z,29.70
2019-04-16T15:46:24.841Z,24.87
2019-04-16T15:48:51.192Z,28.30
2019-04-16T15:51:25.210Z,30.62
2019-04-16T15:53:56.116Z,28.73
2019-04-16T15:56:36.166Z,29.87
2019-04-16T15:59:10.099Z,27.17
2019-04-16T16:01:53.326Z,28.00
2019-04-16T16:04:22.586Z,31.17
2019-04-16T16:06:53.695Z,29.50
2019-04-16T16:09:21.846Z,31.62
2019-04-16T16:11:52.965Z,27.42
2019-04-16T16:14:39.174Z,31.80
2019-04-16T16:17:05.401Z,27.87
2019-04-16T16:19:31.771Z,30.27
2019-04-16T16:21:58.280Z,27.48
2019-04-16T16:24:24.656Z,34.23
2019-04-16T16:26:51.131Z,30.15
2019-04-16T16:29:17.471Z,27.62
2019-04-16T16:31:43.852Z,25.32
2019-04-16T16:34:10.126Z,26.55
2019-04-16T16:36:37.749Z,29.57
2019-04-16T16:39:05.736Z,30.68
2019-04-16T16:41:32.470Z,27.90
2019-04-16T16:43:58.907Z,32.93
2019-04-16T16:46:56.117Z,30.90
2019-04-16T16:49:11.929Z,27.07
2019-04-16T16:51:41.181Z,34.40
2019-04-16T16:54:21.460Z,31.57
2019-04-16T16:56:49.703Z,35.40
2019-04-16T16:59:20.666Z,31.02
2019-04-16T17:02:10.255Z,28.23
2019-04-16T17:04:35.802Z,36.58
2019-04-16T17:07:02.066Z,27.07
2019-04-16T17:09:31.999Z,30.15
2019-04-16T17:11:58.283Z,31.90
2019-04-16T17:14:24.566Z,32.98
2019-04-16T17:16:50.905Z,36.53
2019-04-16T17:19:17.471Z,32.38
2019-04-16T17:21:43.876Z,35.48
2019-04-16T17:24:10.170Z,43.23
2019-04-16T17:26:37.117Z,34.95
2019-04-16T17:29:03.713Z,31.62
2019-04-16T17:31:31.066Z,38.78
2019-04-16T17:33:57.311Z,33.83
2019-04-16T17:36:23.744Z,32.13
2019-04-16T17:38:51.196Z,41.50
2019-04-16T17:41:51.143Z,41.00
2019-04-16T17:44:19.577Z,33.38
2019-04-16T17:47:03.124Z,37.48
2019-04-16T17:49:37.611Z,36.03
2019-04-16T17:52:11.784Z,35.05
2019-04-16T17:54:42.702Z,33.83
2019-04-16T17:57:10.935Z,37.13
2019-04-16T17:59:48.561Z,44.25
2019-04-16T18:02:17.201Z,33.75
2019-04-16T18:05:02.293Z,35.68
2019-04-16T18:07:39.668Z,33.90
2019-04-16T18:10:26.566Z,37.33
2019-04-16T18:12:58.916Z,34.85
2019-04-16T18:15:27.243Z,39.67
2019-04-16T18:18:02.054Z,36.50
2019-04-16T18:20:57.295Z,40.03
2019-04-16T18:23:37.095Z,37.50
2019-04-16T18:26:22.083Z,41.00
2019-04-16T18:28:52.974Z,35.60
2019-04-16T18:31:32.990Z,34.58
2019-04-16T18:34:08.788Z,35.75
2019-04-16T18:36:42.697Z,44.38
2019-04-16T18:39:27.560Z,35.28
2019-04-16T18:42:01.839Z,39.03
2019-04-16T18:44:42.300Z,39.03
2019-04-16T18:47:22.491Z,37.03
2019-04-16T18:49:50.655Z,41.20
2019-04-16T18:52:16.940Z,45.25
2019-04-16T18:54:45.928Z,36.17
2019-04-16T18:57:11.463Z,36.25
2019-04-16T18:59:37.790Z,46.02
2019-04-16T19:02:08.704Z,39.98
2019-04-16T19:04:34.083Z,33.53
2019-04-16T19:07:00.585Z,34.35
2019-04-16T19:09:26.978Z,35.52
2019-04-16T19:11:53.253Z,33.65
2019-04-16T19:14:19.505Z,35.55
2019-04-16T19:16:45.810Z,41.05
2019-04-16T19:19:12.245Z,36.98
2019-04-16T19:21:42.242Z,43.68
2019-04-16T19:24:06.993Z,36.68
2019-04-16T19:26:33.273Z,36.45
2019-04-16T19:28:59.677Z,39.48
2019-04-16T19:31:26.007Z,37.85
2019-04-16T19:33:52.367Z,50.15
2019-04-16T19:36:19.705Z,36.83
2019-04-16T19:38:47.090Z,41.10
2019-04-16T19:41:13.421Z,40.80
2019-04-16T19:43:39.688Z,41.55
2019-04-16T19:46:06.039Z,43.87
2019-04-16T19:48:35.859Z,41.42
2019-04-16T19:51:00.509Z,49.13
2019-04-16T19:53:26.821Z,36.35
2019-04-16T19:55:53.325Z,41.08
2019-04-16T19:58:19.870Z,32.45
2019-04-16T20:00:46.401Z,41.48
2019-04-16T20:03:12.662Z,50.25
2019-04-16T20:05:39.073Z,36.20
2019-04-16T20:08:25.227Z,38.78
2019-04-16T20:10:51.691Z,39.58
2019-04-16T20:13:18.316Z,37.75
2019-04-16T20:15:44.747Z,52.78
2019-04-16T20:18:11.039Z,38.50
2019-04-16T20:20:37.311Z,36.55
2019-04-16T20:23:03.739Z,34.85
2019-04-16T20:25:30.360Z,38.65
2019-04-16T20:27:56.771Z,38.48
2019-04-16T20:30:24.181Z,38.90
2019-04-16T20:32:50.694Z,37.73
2019-04-16T20:35:18.822Z,33.85
2019-04-16T20:37:45.153Z,43.27
2019-04-16T20:40:14.417Z,45.63
2019-04-16T20:42:39.518Z,36.28
2019-04-16T20:45:25.781Z,37.03
2019-04-16T20:47:52.322Z,43.78
2019-04-16T20:50:20.815Z,35.50
2019-04-16T20:52:46.864Z,40.50
2019-04-16T20:55:15.997Z,35.92
2019-04-16T20:57:41.344Z,40.60
2019-04-16T21:00:10.942Z,39.30
2019-04-16T21:02:37.620Z,42.43
2019-04-16T21:05:20.785Z,46.53
2019-04-16T21:07:33.690Z,42.73
2019-04-16T21:10:03.419Z,41.02
2019-04-16T21:12:28.336Z,41.40
2019-04-16T21:14:55.464Z,37.75
2019-04-16T21:17:21.893Z,48.38
2019-04-16T21:19:48.214Z,40.20
2019-04-16T21:22:15.318Z,42.17
2019-04-16T21:24:42.785Z,41.28
2019-04-16T21:27:10.650Z,45.17
2019-04-16T21:29:36.959Z,43.42
2019-04-16T21:32:10.311Z,41.25
2019-04-16T21:34:40.857Z,44.53
2019-04-16T21:37:25.651Z,35.88
2019-04-16T21:39:53.851Z,35.38
2019-04-16T21:42:20.215Z,32.45
2019-04-16T21:44:46.509Z,42.90
2019-04-16T21:47:13.700Z,43.13
2019-04-16T21:49:44.991Z,46.60
2019-04-16T21:52:08.807Z,49.20
2019-04-16T21:54:35.708Z,39.23
2019-04-16T21:57:02.197Z,41.70
2019-04-16T21:59:28.462Z,52.15
2019-04-16T22:01:55.138Z,42.17
2019-04-16T22:04:22.006Z,44.40
2019-04-16T22:06:49.075Z,48.10
2019-04-16T22:09:16.879Z,47.78
2019-04-16T22:11:44.357Z,51.18
2019-04-16T22:14:10.805Z,53.05
2019-04-16T22:16:37.085Z,60.55
2019-04-16T22:19:03.342Z,56.73
2019-04-16T22:21:29.586Z,53.95
2019-04-16T22:23:55.946Z,56.65
2019-04-16T22:26:22.190Z,54.65
2019-04-16T22:28:48.448Z,56.20
2019-04-16T22:31:14.757Z,64.32
2019-04-16T22:33:41.044Z,61.02
2019-04-16T22:36:07.431Z,76.25
2019-04-16T22:38:35.311Z,60.65
2019-04-16T22:41:03.484Z,65.25
2019-04-16T22:43:48.265Z,62.65
2019-04-16T22:46:19.490Z,66.07
2019-04-16T22:48:56.550Z,61.35
2019-04-16T22:51:23.351Z,62.53
2019-04-16T22:53:50.146Z,49.77
2019-04-16T22:56:16.789Z,54.45
2019-04-16T22:58:47.067Z,59.88
2019-04-16T23:01:14.222Z,59.70
2019-04-16T23:03:41.124Z,52.67
2019-04-16T23:06:08.118Z,64.75
2019-04-16T23:08:34.603Z,62.35
2019-04-16T23:11:00.892Z,67.53
2019-04-16T23:13:32.296Z,68.40
2019-04-16T23:15:55.337Z,65.33
2019-04-16T23:18:21.628Z,50.58
2019-04-16T23:20:47.888Z,56.83
2019-04-16T23:23:18.164Z,59.73
2019-04-16T23:25:42.257Z,64.67
2019-04-16T23:28:10.708Z,57.62
2019-04-16T23:30:36.716Z,64.57
2019-04-16T23:33:03.161Z,67.78
2019-04-16T23:35:29.648Z,61.05
2019-04-16T23:37:59.498Z,69.62
2019-04-16T23:40:24.128Z,49.80
2019-04-16T23:43:08.852Z,49.05
2019-04-16T23:45:43.008Z,53.65
2019-04-16T23:48:17.159Z,43.83
2019-04-16T23:51:03.737Z,60.28
2019-04-16T23:53:34.621Z,55.55
2019-04-16T23:56:02.802Z,50.75
2019-04-16T23:58:30.980Z,55.38
